createdAt,value
2024-01-15T00:01:16.930Z,0.96
2024-01-15T00:03:45.055Z,0.95
2024-01-15T00:06:13.231Z,1.16
2024-01-15T00:08:39.766Z,1.10
2024-01-15T00:11:07.670Z,1.07
2024-01-15T00:13:34.132Z,0.96
2024-01-15T00:16:00.603Z,0.94
2024-01-15T00:18:27.359Z,0.98
2024-01-15T00:20:54.115Z,0.90
2024-01-15T00:23:20.706Z,0.83
2024-01-15T00:25:47.214Z,0.85
2024-01-15T00:28:15.154Z,0.86
2024-01-15T00:30:41.698Z,0.81
2024-01-15T00:33:08.343Z,0.81
2024-01-15T00:35:34.940Z,0.87
2024-01-15T00:38:01.703Z,0.99
2024-01-15T00:40:28.407Z,0.98
2024-01-15T00:42:54.897Z,1.00
2024-01-15T00:45:22.750Z,1.02
2024-01-15T00:47:49.691Z,1.05
2024-01-15T00:50:16.245Z,1.23
2024-01-15T00:52:42.767Z,1.17
2024-01-15T00:55:09.321Z,1.08
2024-01-15T00:57:35.921Z,1.21
2024-01-15T01:00:04.719Z,1.20
2024-01-15T01:02:34.464Z,1.23
2024-01-15T01:05:03.094Z,1.20
2024-01-15T01:07:29.659Z,1.22
2024-01-15T01:09:56.415Z,1.29
2024-01-15T01:12:23.588Z,1.34
2024-01-15T01:14:50.123Z,1.39
2024-01-15T01:17:16.688Z,1.49
2024-01-15T01:19:44.749Z,1.53
2024-01-15T01:22:11.369Z,1.63
2024-01-15T01:24:37.920Z,1.51
2024-01-15T01:27:04.950Z,1.39
2024-01-15T01:29:33.804Z,1.52
2024-01-15T01:32:00.439Z,1.45
2024-01-15T01:34:28.581Z,1.57
2024-01-15T01:36:57.259Z,1.53
2024-01-15T01:39:23.801Z,1.61
2024-01-15T01:41:50.356Z,1.53
2024-01-15T01:44:17.216Z,1.58
2024-01-15T01:46:43.970Z,1.58
2024-01-15T01:49:10.747Z,1.50
2024-01-15T01:51:37.975Z,1.49
2024-01-15T01:54:06.725Z,1.42
2024-01-15T01:56:33.513Z,1.48
2024-01-15T01:59:00.061Z,1.49
2024-01-15T02:01:29.234Z,1.53
2024-01-15T02:03:55.864Z,1.61
2024-01-15T02:06:22.545Z,1.65
2024-01-15T02:08:49.166Z,1.80
2024-01-15T02:11:17.136Z,1.82
2024-01-15T02:13:43.679Z,1.90
2024-01-15T02:16:10.198Z,1.89
2024-01-15T02:18:43.633Z,2.06
2024-01-15T02:21:10.523Z,2.20
2024-01-15T02:23:38.416Z,2.15
2024-01-15T02:26:05.641Z,2.23
2024-01-15T02:28:33.454Z,2.30
2024-01-15T02:31:00.020Z,2.35
2024-01-15T02:33:26.850Z,2.45
2024-01-15T02:35:53.563Z,2.50
2024-01-15T02:38:20.068Z,2.51
2024-01-15T02:40:48.142Z,2.54
2024-01-15T02:43:14.830Z,2.56
2024-01-15T02:45:41.651Z,2.40
2024-01-15T02:48:08.673Z,2.52
2024-01-15T02:50:35.284Z,2.51
2024-01-15T02:53:01.797Z,2.42
2024-01-15T02:55:28.292Z,2.37
2024-01-15T02:57:56.210Z,2.43
2024-01-15T03:00:22.795Z,2.41
2024-01-15T03:02:51.195Z,2.31
2024-01-15T03:05:17.728Z,2.33
2024-01-15T03:07:44.305Z,2.21
2024-01-15T03:10:10.802Z,2.06
2024-01-15T03:12:37.344Z,1.91
2024-01-15T03:15:06.067Z,1.77
2024-01-15T03:17:32.630Z,1.91
2024-01-15T03:19:59.294Z,1.82
2024-01-15T03:22:25.810Z,1.76
2024-01-15T03:24:53.736Z,1.80
2024-01-15T03:27:20.353Z,1.88
2024-01-15T03:29:46.864Z,1.87
2024-01-15T03:32:14.904Z,2.03
2024-01-15T03:34:41.629Z,2.11
2024-01-15T03:37:08.241Z,2.17
2024-01-15T03:39:34.986Z,2.43
2024-01-15T03:42:01.485Z,2.37
2024-01-15T03:44:27.999Z,2.68
2024-01-15T03:46:54.554Z,3.15
2024-01-15T03:49:22.666Z,3.11
2024-01-15T03:51:49.309Z,3.18
2024-01-15T03:54:18.424Z,2.90
2024-01-15T03:56:46.395Z,2.97
2024-01-15T03:59:12.883Z,2.84
2024-01-15T04:01:39.390Z,2.75
2024-01-15T04:04:05.987Z,2.69
2024-01-15T04:06:34.074Z,2.73
2024-01-15T04:09:00.653Z,2.77
2024-01-15T04:11:27.159Z,2.68
2024-01-15T04:13:53.631Z,2.71
2024-01-15T04:16:20.236Z,2.53
2024-01-15T04:18:46.773Z,2.43
2024-01-15T04:21:13.398Z,2.54
2024-01-15T04:23:41.657Z,2.74
2024-01-15T04:26:08.156Z,2.59
2024-01-15T04:28:34.656Z,2.64
2024-01-15T04:31:01.247Z,2.54
2024-01-15T04:33:27.931Z,2.60
2024-01-15T04:35:54.596Z,2.57
2024-01-15T04:38:21.474Z,2.67
2024-01-15T04:40:49.444Z,2.59
2024-01-15T04:43:15.950Z,2.68
2024-01-15T04:45:42.486Z,2.84
2024-01-15T04:48:09.144Z,2.69
2024-01-15T04:50:35.748Z,2.63
2024-01-15T04:53:02.254Z,2.50
2024-01-15T04:55:28.758Z,2.41
2024-01-15T04:57:56.784Z,2.45
2024-01-15T05:00:23.284Z,2.31
2024-01-15T05:02:50.084Z,2.37
2024-01-15T05:05:16.640Z,2.50
2024-01-15T05:07:43.402Z,2.65
2024-01-15T05:10:10.168Z,2.49
2024-01-15T05:12:36.680Z,2.50
2024-01-15T05:15:05.096Z,2.46
2024-01-15T05:17:31.616Z,2.15
2024-01-15T05:19:58.473Z,2.24
2024-01-15T05:22:25.135Z,2.40
2024-01-15T05:24:51.791Z,2.64
2024-01-15T05:27:18.371Z,2.03
2024-01-15T05:29:44.936Z,2.28
2024-01-15T05:32:12.904Z,2.39
2024-01-15T05:34:39.583Z,2.25
2024-01-15T05:37:06.130Z,2.47
2024-01-15T05:39:32.690Z,2.39
2024-01-15T05:41:59.603Z,2.22
2024-01-15T05:44:26.151Z,2.32
2024-01-15T05:46:52.676Z,2.07
2024-01-15T05:49:20.646Z,2.07
2024-01-15T05:51:47.242Z,2.10
2024-01-15T05:54:13.982Z,2.15
2024-01-15T05:56:40.489Z,2.09
2024-01-15T05:59:06.954Z,2.03
2024-01-15T06:01:33.510Z,2.04
2024-01-15T06:06:28.153Z,2.08
2024-01-15T06:08:54.672Z,2.04
2024-01-15T06:11:21.164Z,2.02
2024-01-15T06:13:47.622Z,2.10
2024-01-15T06:16:14.906Z,1.89
2024-01-15T06:18:41.697Z,1.92
2024-01-15T06:21:08.268Z,1.96
2024-01-15T06:23:36.228Z,1.93
2024-01-15T06:26:02.755Z,1.88
2024-01-15T06:28:29.255Z,1.88
2024-01-15T06:30:55.987Z,1.94
2024-01-15T06:33:22.682Z,2.05
2024-01-15T06:35:49.227Z,1.97
2024-01-15T06:38:15.801Z,2.05
2024-01-15T06:40:43.773Z,2.08
2024-01-15T06:43:10.233Z,2.14
2024-01-15T06:45:36.771Z,1.98
2024-01-15T06:48:03.508Z,2.04
2024-01-15T06:50:30.067Z,2.10
2024-01-15T06:52:56.529Z,2.10
2024-01-15T06:55:22.973Z,2.20
2024-01-15T06:57:51.006Z,2.17
2024-01-15T07:00:18.052Z,1.99
2024-01-15T07:02:44.634Z,2.05
2024-01-15T07:05:11.201Z,1.92
2024-01-15T07:07:38.095Z,1.91
2024-01-15T07:10:05.142Z,1.91
2024-01-15T07:12:31.624Z,1.88
2024-01-15T07:14:59.619Z,1.92
2024-01-15T07:17:26.120Z,1.93
2024-01-15T07:19:52.619Z,2.03
2024-01-15T07:22:19.112Z,1.99
2024-01-15T07:24:45.618Z,1.76
2024-01-15T07:27:12.130Z,1.73
2024-01-15T07:29:38.665Z,1.64
2024-01-15T07:32:06.772Z,1.78
2024-01-15T07:34:33.354Z,1.82
2024-01-15T07:37:00.192Z,1.81
2024-01-15T07:39:26.884Z,1.79
2024-01-15T07:41:53.361Z,1.82
2024-01-15T07:44:19.852Z,1.87
2024-01-15T07:46:46.355Z,1.88
2024-01-15T07:49:14.587Z,1.82
2024-01-15T07:51:41.464Z,1.83
2024-01-15T07:54:08.138Z,1.64
2024-01-15T07:56:34.639Z,1.63
2024-01-15T07:59:01.445Z,1.51
2024-01-15T08:01:27.992Z,1.34
2024-01-15T08:03:54.569Z,1.28
2024-01-15T08:06:22.741Z,1.11
2024-01-15T08:08:49.304Z,0.99
2024-01-15T08:11:16.114Z,0.86
2024-01-15T08:13:42.610Z,0.85
2024-01-15T08:16:09.163Z,0.85
2024-01-15T08:18:35.823Z,0.81
2024-01-15T08:21:02.501Z,0.77
2024-01-15T08:23:30.472Z,0.84
2024-01-15T08:25:56.982Z,0.84
2024-01-15T08:28:23.450Z,0.80
2024-01-15T08:30:50.025Z,0.76
2024-01-15T08:33:21.919Z,0.75
2024-01-15T08:35:49.182Z,0.79
2024-01-15T08:38:15.719Z,0.67
2024-01-15T08:40:43.595Z,0.71
2024-01-15T08:43:10.094Z,0.80
2024-01-15T08:45:36.742Z,0.89
2024-01-15T08:48:03.616Z,0.98
2024-01-15T08:50:30.607Z,0.82
2024-01-15T08:52:57.054Z,0.77
2024-01-15T08:55:23.670Z,0.79
2024-01-15T08:57:51.752Z,0.84
2024-01-15T09:00:18.602Z,0.91
2024-01-15T09:02:45.169Z,0.96
2024-01-15T09:05:11.899Z,0.87
2024-01-15T09:07:38.470Z,0.91
2024-01-15T09:10:05.577Z,0.89
2024-01-15T09:12:32.068Z,1.01
2024-01-15T09:14:59.913Z,0.78
2024-01-15T09:17:26.390Z,0.58
2024-01-15T09:19:52.928Z,0.45
2024-01-15T09:22:19.485Z,0.41
2024-01-15T09:24:46.138Z,0.42
2024-01-15T09:27:12.699Z,0.50
2024-01-15T09:29:39.148Z,0.48
2024-01-15T09:32:07.165Z,0.45
2024-01-15T09:34:33.700Z,0.57
2024-01-15T09:37:00.238Z,0.53
2024-01-15T09:39:26.822Z,0.58
2024-01-15T09:41:53.417Z,0.67
2024-01-15T09:44:20.020Z,0.70
2024-01-15T09:46:47.347Z,0.81
2024-01-15T09:49:15.333Z,0.77
2024-01-15T09:51:43.337Z,0.67
2024-01-15T09:54:10.305Z,0.65
2024-01-15T09:56:36.805Z,0.64
2024-01-15T09:59:03.297Z,0.60
2024-01-15T10:01:30.601Z,0.75
2024-01-15T10:03:57.422Z,0.82
2024-01-15T10:06:27.538Z,0.77
2024-01-15T10:08:54.761Z,0.76
2024-01-15T10:11:21.416Z,0.72
2024-01-15T10:13:49.856Z,0.74
2024-01-15T10:16:17.611Z,0.73
2024-01-15T10:18:44.256Z,0.75
2024-01-15T10:21:10.860Z,0.65
2024-01-15T10:23:38.750Z,0.63
2024-01-15T10:26:05.237Z,0.58
2024-01-15T10:28:31.831Z,0.65
2024-01-15T10:30:59.232Z,0.64
2024-01-15T10:33:26.183Z,0.61
2024-01-15T10:35:54.513Z,0.65
2024-01-15T10:38:21.402Z,0.53
2024-01-15T10:40:51.770Z,0.63
2024-01-15T10:43:18.219Z,0.51
2024-01-15T10:45:45.164Z,0.48
2024-01-15T10:48:11.809Z,0.35
2024-01-15T10:50:38.739Z,0.44
2024-01-15T10:53:05.314Z,0.40
2024-01-15T10:55:32.638Z,0.40
2024-01-15T10:58:03.415Z,0.38
2024-01-15T11:00:30.252Z,0.43
2024-01-15T11:02:57.107Z,0.41
2024-01-15T11:05:23.933Z,0.42
2024-01-15T11:07:50.680Z,0.55
2024-01-15T11:10:40.969Z,0.53
2024-01-15T11:13:10.532Z,0.65
2024-01-15T11:15:51.974Z,0.62
2024-01-15T11:18:18.599Z,0.60
2024-01-15T11:21:10.829Z,0.84
2024-01-15T11:23:43.678Z,0.90
2024-01-15T11:26:27.671Z,0.96
2024-01-15T11:28:55.534Z,1.24
2024-01-15T11:31:26.702Z,1.01
2024-01-15T11:33:53.404Z,1.03
2024-01-15T11:36:19.968Z,1.04
2024-01-15T11:38:46.862Z,1.17
2024-01-15T11:41:14.902Z,1.32
2024-01-15T11:43:41.545Z,1.21
2024-01-15T11:46:11.797Z,1.19
2024-01-15T11:48:43.393Z,0.98
2024-01-15T11:51:11.847Z,1.06
2024-01-15T11:53:44.351Z,1.02
2024-01-15T11:56:13.090Z,1.11
2024-01-15T11:58:39.583Z,1.12
2024-01-15T12:01:06.243Z,1.23
2024-01-15T12:03:34.460Z,1.37
2024-01-15T12:06:01.104Z,1.31
2024-01-15T12:08:27.595Z,1.42
2024-01-15T12:10:54.439Z,1.40
2024-01-15T12:13:21.339Z,1.61
2024-01-15T12:15:48.279Z,1.60
2024-01-15T12:18:15.441Z,1.85
2024-01-15T12:20:44.806Z,2.11
2024-01-15T12:23:11.690Z,1.93
2024-01-15T12:25:38.288Z,2.29
2024-01-15T12:28:05.137Z,2.62
2024-01-15T12:30:31.779Z,2.75
2024-01-15T12:32:58.376Z,2.59
2024-01-15T12:35:25.312Z,1.93
2024-01-15T12:37:53.180Z,1.93
2024-01-15T12:40:20.414Z,2.05
2024-01-15T12:42:47.258Z,1.77
2024-01-15T12:45:14.470Z,1.65
2024-01-15T12:47:41.061Z,2.09
2024-01-15T12:50:15.624Z,1.68
2024-01-15T12:52:46.025Z,1.80
2024-01-15T12:55:14.397Z,1.92
2024-01-15T12:57:40.912Z,2.01
2024-01-15T13:00:07.818Z,1.57
2024-01-15T13:02:34.292Z,1.65
2024-01-15T13:05:01.226Z,1.68
2024-01-15T13:07:28.181Z,1.67
2024-01-15T13:09:54.693Z,1.71
2024-01-15T13:12:22.574Z,1.59
2024-01-15T13:14:49.062Z,1.53
2024-01-15T13:17:15.540Z,1.33
2024-01-15T13:19:42.189Z,1.34
2024-01-15T13:22:08.726Z,1.43
2024-01-15T13:24:35.299Z,1.31
2024-01-15T13:27:01.770Z,1.16
2024-01-15T13:29:29.688Z,1.26
2024-01-15T13:31:56.158Z,1.30
2024-01-15T13:34:22.742Z,1.30
2024-01-15T13:36:49.334Z,1.55
2024-01-15T13:39:17.550Z,1.18
2024-01-15T13:41:45.291Z,1.16
2024-01-15T13:44:11.952Z,1.31
2024-01-15T13:46:39.809Z,1.33
2024-01-15T13:49:06.336Z,1.32
2024-01-15T13:51:32.995Z,1.21
2024-01-15T13:53:59.578Z,1.43
2024-01-15T13:56:26.118Z,1.32
2024-01-15T13:58:52.624Z,1.49
2024-01-15T14:01:19.568Z,1.43
2024-01-15T14:03:47.744Z,1.56
2024-01-15T14:06:14.349Z,1.48
2024-01-15T14:08:40.966Z,1.56
2024-01-15T14:11:07.585Z,1.50
2024-01-15T14:13:34.441Z,1.34
2024-01-15T14:16:01.078Z,1.47
2024-01-15T14:18:29.544Z,1.43
2024-01-15T14:20:58.827Z,1.67
2024-01-15T14:23:25.305Z,1.62
2024-01-15T14:25:51.784Z,1.50
2024-01-15T14:28:18.335Z,1.56
2024-01-15T14:30:44.915Z,1.50
2024-01-15T14:33:11.556Z,1.58
2024-01-15T14:35:38.484Z,1.55
2024-01-15T14:38:06.835Z,1.52
2024-01-15T14:40:33.394Z,1.67
2024-01-15T14:42:59.892Z,1.67
2024-01-15T14:45:26.416Z,1.65
2024-01-15T14:47:53.017Z,1.71
2024-01-15T14:50:19.597Z,1.78
2024-01-15T14:52:46.143Z,1.80
2024-01-15T14:55:14.259Z,1.81
2024-01-15T14:57:41.053Z,1.86
2024-01-15T15:00:08.853Z,1.90
2024-01-15T15:02:35.617Z,1.98
2024-01-15T15:05:02.627Z,2.13
2024-01-15T15:07:29.267Z,2.23
2024-01-15T15:09:55.896Z,2.58
2024-01-15T15:12:24.050Z,2.44
2024-01-15T15:14:56.630Z,2.21
2024-01-15T15:17:30.796Z,2.47
2024-01-15T15:19:57.490Z,2.29
2024-01-15T15:22:24.226Z,2.29
2024-01-15T15:24:50.723Z,2.26
2024-01-15T15:27:17.279Z,2.15
2024-01-15T15:29:45.221Z,2.23
2024-01-15T15:32:11.732Z,2.12
2024-01-15T15:34:38.348Z,1.91
2024-01-15T15:37:05.221Z,1.92
2024-01-15T15:39:31.781Z,1.80
2024-01-15T15:41:58.288Z,1.49
2024-01-15T15:44:24.765Z,1.57
2024-01-15T15:46:52.601Z,1.47
2024-01-15T15:49:19.310Z,1.27
2024-01-15T15:51:46.103Z,1.21
2024-01-15T15:54:13.442Z,1.19
2024-01-15T15:56:39.970Z,1.16
2024-01-15T15:59:07.891Z,1.02
2024-01-15T16:01:34.616Z,0.98
2024-01-15T16:04:02.708Z,0.95
2024-01-15T16:06:29.311Z,0.98
2024-01-15T16:08:55.804Z,0.98
2024-01-15T16:11:22.524Z,1.02
2024-01-15T16:13:49.012Z,0.96
2024-01-15T16:23:10.367Z,0.96
2024-01-15T16:23:23.478Z,0.78
2024-01-15T16:23:38.340Z,0.86
2024-01-15T16:24:46.333Z,0.83
2024-01-15T16:27:18.110Z,0.76
2024-01-15T16:29:44.609Z,0.88
2024-01-15T16:32:11.102Z,0.88
2024-01-15T16:34:39.133Z,0.86
2024-01-15T16:37:05.656Z,0.81
2024-01-15T16:39:32.218Z,0.91
2024-01-15T16:41:58.834Z,0.85
2024-01-15T16:44:25.450Z,0.64
2024-01-15T16:46:51.950Z,0.54
2024-01-15T16:49:19.561Z,0.57
2024-01-15T16:51:47.839Z,0.71
2024-01-15T16:54:14.369Z,0.66
2024-01-15T16:56:41.007Z,0.71
2024-01-15T16:59:07.827Z,0.58
2024-01-15T17:01:34.447Z,0.55
2024-01-15T17:04:01.113Z,0.67
2024-01-15T17:06:27.621Z,0.57
2024-01-15T17:08:55.830Z,0.48
2024-01-15T17:11:22.352Z,0.51
2024-01-15T17:13:48.879Z,0.48
2024-01-15T17:16:15.550Z,0.52
2024-01-15T17:18:42.180Z,0.48
2024-01-15T17:21:08.780Z,0.55
2024-01-15T17:23:35.353Z,0.54
2024-01-15T17:26:03.440Z,0.54
2024-01-15T17:28:29.937Z,0.22
2024-01-15T17:30:56.511Z,0.54
2024-01-15T17:33:23.135Z,0.46
2024-01-15T17:35:52.967Z,0.49
2024-01-15T17:38:19.566Z,0.43
2024-01-15T17:40:46.438Z,0.46
2024-01-15T17:43:14.418Z,0.48
2024-01-15T17:45:40.936Z,0.56
2024-01-15T17:48:07.810Z,0.61
2024-01-15T17:50:34.625Z,0.72
2024-01-15T17:53:01.269Z,0.78
2024-01-15T17:55:28.009Z,0.83
2024-01-15T17:57:54.663Z,0.84
2024-01-15T18:00:22.729Z,0.93
2024-01-15T18:02:49.263Z,0.92
2024-01-15T18:05:16.566Z,0.90
2024-01-15T18:07:43.314Z,0.94
2024-01-15T18:10:10.314Z,0.88
2024-01-15T18:12:37.015Z,0.85
2024-01-15T18:15:03.806Z,0.96
2024-01-15T18:17:31.817Z,1.07
2024-01-15T18:19:58.445Z,1.11
2024-01-15T18:22:25.095Z,1.24
2024-01-15T18:24:51.626Z,1.19
2024-01-15T18:27:18.505Z,1.23
2024-01-15T18:29:45.105Z,1.20
2024-01-15T18:32:11.727Z,1.36
2024-01-15T18:34:39.893Z,1.34
2024-01-15T18:37:06.494Z,1.52
2024-01-15T18:39:32.978Z,1.47
2024-01-15T18:41:59.539Z,1.40
2024-01-15T18:44:26.108Z,1.37
2024-01-15T18:46:52.640Z,1.36
2024-01-15T18:49:19.193Z,1.17
2024-01-15T18:51:48.185Z,1.20
2024-01-15T18:54:15.788Z,1.04
2024-01-15T18:56:42.426Z,0.97
2024-01-15T18:59:09.111Z,0.93
2024-01-15T19:01:35.799Z,1.03
2024-01-15T19:04:02.357Z,0.90
2024-01-15T19:06:28.894Z,0.86
2024-01-15T19:08:56.845Z,0.69
2024-01-15T19:11:23.379Z,0.82
2024-01-15T19:13:50.100Z,0.83
2024-01-15T19:16:16.620Z,0.96
2024-01-15T19:18:43.229Z,0.96
2024-01-15T19:21:09.819Z,1.09
2024-01-15T19:23:36.409Z,1.06
2024-01-15T19:26:04.435Z,1.11
2024-01-15T19:28:30.951Z,1.11
2024-01-15T19:30:57.438Z,1.01
2024-01-15T19:33:24.119Z,1.13
2024-01-15T19:35:50.722Z,1.16
2024-01-15T19:38:17.379Z,1.11
2024-01-15T19:40:43.859Z,1.03
2024-01-15T19:43:11.759Z,1.04
2024-01-15T19:45:38.287Z,1.01
2024-01-15T19:48:05.435Z,1.14
2024-01-15T19:50:32.107Z,1.21
2024-01-15T19:52:58.643Z,1.20
2024-01-15T19:55:25.956Z,1.36
2024-01-15T19:57:52.468Z,1.31
2024-01-15T20:00:20.739Z,1.29
2024-01-15T20:02:47.262Z,1.37
2024-01-15T20:05:13.968Z,1.38
2024-01-15T20:07:40.536Z,1.33
2024-01-15T20:10:07.638Z,1.39
2024-01-15T20:12:34.138Z,1.47
2024-01-15T20:15:00.638Z,1.44
2024-01-15T20:17:28.553Z,1.34
2024-01-15T20:19:55.186Z,1.47
2024-01-15T20:22:21.762Z,1.55
2024-01-15T20:24:48.314Z,1.65
2024-01-15T20:27:14.807Z,1.79
2024-01-15T20:29:41.395Z,1.93
2024-01-15T20:32:07.962Z,2.07
2024-01-15T20:34:35.948Z,2.13
2024-01-15T20:37:02.484Z,2.02
2024-01-15T20:39:28.992Z,2.00
2024-01-15T20:41:55.490Z,2.01
2024-01-15T20:44:22.034Z,2.25
2024-01-15T20:46:48.534Z,2.19
2024-01-15T20:49:15.244Z,2.24
2024-01-15T20:51:43.097Z,2.33
2024-01-15T20:54:09.571Z,2.06
2024-01-15T20:56:36.060Z,1.91
2024-01-15T20:59:02.578Z,1.70
2024-01-15T21:01:29.098Z,1.47
2024-01-15T21:03:55.579Z,1.01
2024-01-15T21:06:22.197Z,1.15
2024-01-15T21:08:50.165Z,0.90
2024-01-15T21:11:16.693Z,0.82
2024-01-15T21:13:43.165Z,0.89
2024-01-15T21:16:09.650Z,0.78
2024-01-15T21:18:36.238Z,0.71
2024-01-15T21:21:02.841Z,0.65
2024-01-15T21:23:29.464Z,0.64
2024-01-15T21:25:58.669Z,0.60
2024-01-15T21:28:25.323Z,0.66
2024-01-15T21:30:51.806Z,0.58
2024-01-15T21:33:18.360Z,0.54
2024-01-15T21:35:44.946Z,0.53
2024-01-15T21:38:11.483Z,0.57
2024-01-15T21:40:38.000Z,0.62
2024-01-15T21:43:05.884Z,0.59
2024-01-15T21:45:32.362Z,0.58
2024-01-15T21:47:59.043Z,0.62
2024-01-15T21:50:25.764Z,0.52
2024-01-15T21:52:52.307Z,0.47
2024-01-15T21:55:18.966Z,0.32
2024-01-15T21:57:45.516Z,0.43
2024-01-15T22:00:14.668Z,0.38
2024-01-15T22:02:41.318Z,0.44
2024-01-15T22:05:08.653Z,0.51
2024-01-15T22:07:35.193Z,0.51
2024-01-15T22:10:02.329Z,0.46
2024-01-15T22:12:28.832Z,0.56
2024-01-15T22:14:55.408Z,0.52
2024-01-15T22:17:23.409Z,0.55
2024-01-15T22:19:49.942Z,0.58
2024-01-15T22:22:16.405Z,0.53
2024-01-15T22:24:42.884Z,0.62
2024-01-15T22:27:09.350Z,0.60
2024-01-15T22:29:35.927Z,0.62
2024-01-15T22:32:02.596Z,0.68
2024-01-15T22:34:30.538Z,0.70
2024-01-15T22:36:57.043Z,0.68
2024-01-15T22:39:24.080Z,0.71
2024-01-15T22:41:50.559Z,0.56
2024-01-15T22:44:17.073Z,0.64
2024-01-15T22:46:43.566Z,0.60
2024-01-15T22:49:10.195Z,0.51
2024-01-15T22:51:38.160Z,0.44
2024-01-15T22:54:04.688Z,0.35
2024-01-15T22:56:31.227Z,0.38
2024-01-15T22:58:57.736Z,0.46
2024-01-15T23:01:24.506Z,0.40
2024-01-15T23:03:51.063Z,0.29
2024-01-15T23:06:18.166Z,0.26
2024-01-15T23:08:46.092Z,0.27
2024-01-15T23:11:12.690Z,0.32
2024-01-15T23:13:39.524Z,0.45
2024-01-15T23:16:06.231Z,0.55
2024-01-15T23:18:32.813Z,0.47
2024-01-15T23:20:59.383Z,0.44
2024-01-15T23:23:25.878Z,0.54
2024-01-15T23:25:54.125Z,0.56
2024-01-15T23:28:20.636Z,0.17
2024-01-15T23:30:47.490Z,0.11
2024-01-15T23:33:14.154Z,0.24
2024-01-15T23:35:41.369Z,0.31
2024-01-15T23:38:07.929Z,0.27
2024-01-15T23:40:34.627Z,0.07
2024-01-15T23:43:02.469Z,0.15
2024-01-15T23:45:28.966Z,0.02
2024-01-15T23:47:55.573Z,-0.02
2024-01-15T23:50:22.137Z,-0.05
2024-01-15T23:52:48.923Z,-0.09
2024-01-15T23:55:15.548Z,-0.13
2024-01-15T23:57:42.355Z,-0.21
